Terminal Aerodrome Forecast
Issued by NWS Jackson, MS

Home | Current Version | Previous Version | Text Only | Print | Product List | Glossary On
Versions: 1 2 3 4 5 6 7 8 9 10 11 12
000
FTUS44 KMEG 081730
TAFTUP
TAF
KTUP 081730Z 0818/0918 28012G18KT P6SM OVC070
     FM082000 29012G18KT P6SM OVC050
     FM090000 31010KT P6SM OVC035
     FM091400 32010G18KT P6SM OVC035=

USA.gov is the U.S. government's official web portal to all federal, state and local government web resources and services.